createdAt,value
2017-10-11T00:02:32.388Z,3.00
2017-10-11T00:05:37.146Z,3.13
2017-10-11T00:08:41.870Z,4.73
2017-10-11T00:11:47.043Z,3.80
2017-10-11T00:14:52.107Z,2.63
2017-10-11T00:17:58.334Z,3.23
2017-10-11T00:21:03.452Z,4.17
2017-10-11T00:24:08.673Z,3.27
2017-10-11T00:27:13.813Z,6.30
2017-10-11T00:30:19.514Z,4.10
2017-10-11T00:33:24.776Z,2.80
2017-10-11T00:36:29.617Z,4.60
2017-10-11T00:39:34.807Z,2.60
2017-10-11T00:42:39.894Z,2.70
2017-10-11T00:45:44.598Z,3.20
2017-10-11T00:48:49.726Z,4.43
2017-10-11T00:51:54.797Z,5.07
2017-10-11T00:54:59.586Z,2.73
2017-10-11T00:58:04.324Z,3.33
2017-10-11T01:01:08.890Z,2.93
2017-10-11T01:04:14.596Z,2.53
2017-10-11T01:07:20.534Z,3.10
2017-10-11T01:10:25.206Z,2.97
2017-10-11T01:13:31.040Z,7.10
2017-10-11T01:16:35.627Z,3.77
2017-10-11T01:19:41.370Z,3.87
2017-10-11T01:22:47.007Z,4.80
2017-10-11T01:25:53.126Z,8.30
2017-10-11T01:28:58.111Z,3.77
2017-10-11T01:32:03.084Z,4.17
2017-10-11T01:35:09.012Z,4.30
2017-10-11T01:38:13.794Z,5.43
2017-10-11T01:41:19.623Z,4.47
2017-10-11T01:44:24.912Z,4.90
2017-10-11T01:47:29.774Z,7.40
2017-10-11T01:50:34.818Z,6.70
2017-10-11T01:53:39.762Z,4.00
2017-10-11T01:56:44.660Z,5.00
2017-10-11T01:59:49.440Z,5.20
2017-10-11T02:02:54.314Z,6.17
2017-10-11T02:05:59.363Z,8.60
2017-10-11T02:09:04.084Z,6.53
2017-10-11T02:12:09.067Z,5.23
2017-10-11T02:15:14.858Z,5.57
2017-10-11T02:18:22.122Z,5.23
2017-10-11T02:21:26.829Z,5.17
2017-10-11T02:24:31.450Z,6.93
2017-10-11T02:27:37.690Z,4.50
2017-10-11T02:30:43.417Z,4.90
2017-10-11T02:33:48.221Z,4.40
2017-10-11T02:36:52.959Z,8.43
2017-10-11T02:39:57.803Z,8.20
2017-10-11T02:43:02.528Z,6.27
2017-10-11T02:46:08.115Z,7.03
2017-10-11T02:49:12.901Z,5.17
2017-10-11T02:52:18.494Z,4.43
2017-10-11T02:55:24.162Z,7.40
2017-10-11T02:58:29.775Z,6.73
2017-10-11T03:01:35.662Z,5.03
2017-10-11T03:04:40.506Z,6.53
2017-10-11T03:07:45.231Z,5.47
2017-10-11T03:10:50.031Z,5.40
2017-10-11T03:13:54.903Z,7.27
2017-10-11T03:16:59.930Z,8.10
2017-10-11T03:20:04.563Z,11.60
2017-10-11T03:23:09.479Z,12.30
2017-10-11T03:26:15.547Z,10.80
2017-10-11T03:29:21.123Z,7.43
2017-10-11T03:32:35.085Z,8.60
2017-10-11T03:35:39.799Z,11.80
2017-10-11T03:38:45.441Z,10.30
2017-10-11T03:41:57.086Z,8.40
2017-10-11T03:45:02.011Z,11.10
2017-10-11T03:48:06.821Z,10.67
2017-10-11T03:51:11.528Z,9.10
2017-10-11T03:54:16.288Z,7.40
2017-10-11T03:57:22.071Z,10.87
2017-10-11T04:00:26.736Z,6.73
2017-10-11T04:03:31.475Z,6.90
2017-10-11T04:06:37.088Z,9.20
2017-10-11T04:09:42.801Z,6.07
2017-10-11T04:12:47.498Z,15.47
2017-10-11T04:15:53.018Z,8.83
2017-10-11T04:18:58.546Z,9.97
2017-10-11T04:22:03.249Z,14.27
2017-10-11T04:25:08.244Z,18.20
2017-10-11T04:28:12.997Z,14.60
2017-10-11T04:31:19.025Z,14.90
2017-10-11T04:34:23.910Z,14.47
2017-10-11T04:37:29.956Z,14.53
2017-10-11T04:40:40.630Z,15.37
2017-10-11T04:43:45.619Z,18.13
2017-10-11T04:46:50.788Z,15.40
2017-10-11T04:49:56.448Z,12.10
2017-10-11T04:53:02.022Z,11.67
2017-10-11T04:56:08.026Z,9.47
2017-10-11T04:59:13.056Z,13.10
2017-10-11T05:02:17.861Z,10.20
2017-10-11T05:05:22.703Z,12.10
2017-10-11T05:08:27.805Z,10.80
2017-10-11T05:11:32.435Z,12.70
2017-10-11T05:14:37.203Z,14.73
2017-10-11T05:17:42.136Z,10.00
2017-10-11T05:20:47.110Z,10.40
2017-10-11T05:23:52.291Z,12.37
2017-10-11T05:26:57.851Z,15.70
2017-10-11T05:30:02.772Z,8.57
2017-10-11T05:33:08.502Z,9.17
2017-10-11T05:36:14.463Z,9.73
2017-10-11T05:39:19.476Z,9.40
2017-10-11T05:42:25.299Z,8.70
2017-10-11T05:45:30.151Z,11.73
2017-10-11T05:48:34.868Z,11.23
2017-10-11T05:51:40.407Z,10.40
2017-10-11T05:54:46.176Z,16.90
2017-10-11T05:57:51.957Z,16.90
2017-10-11T06:00:56.798Z,13.47
2017-10-11T06:04:01.471Z,10.87
2017-10-11T06:07:07.482Z,14.77
2017-10-11T06:10:13.733Z,11.30
2017-10-11T06:13:18.851Z,9.70
2017-10-11T06:16:23.587Z,11.50
2017-10-11T06:19:28.676Z,10.93
2017-10-11T06:22:33.593Z,9.50
2017-10-11T06:25:38.318Z,13.73
2017-10-11T06:28:44.268Z,9.33
2017-10-11T06:31:49.350Z,7.77
2017-10-11T06:34:56.231Z,7.90
2017-10-11T06:38:01.881Z,12.60
2017-10-11T06:41:13.709Z,7.37
2017-10-11T06:44:18.515Z,7.00
2017-10-11T06:47:24.571Z,5.27
2017-10-11T06:50:29.612Z,7.13
2017-10-11T06:53:35.622Z,6.97
2017-10-11T06:56:40.438Z,5.90
2017-10-11T06:59:45.474Z,14.80
2017-10-11T07:02:51.187Z,5.70
2017-10-11T07:05:55.865Z,5.87
2017-10-11T07:09:00.790Z,7.00
2017-10-11T07:12:13.733Z,6.33
2017-10-11T07:15:18.565Z,8.37
2017-10-11T07:18:25.110Z,5.53
2017-10-11T07:21:30.200Z,9.83
2017-10-11T07:24:35.014Z,6.27
2017-10-11T07:27:45.721Z,6.60
2017-10-11T07:30:50.631Z,5.13
2017-10-11T07:33:55.691Z,6.30
2017-10-11T07:37:01.379Z,6.63
2017-10-11T07:40:06.262Z,6.23
2017-10-11T07:43:11.265Z,5.43
2017-10-11T07:46:21.326Z,7.23
2017-10-11T07:49:27.361Z,7.30
2017-10-11T07:52:32.070Z,7.20
2017-10-11T07:55:38.922Z,5.77
2017-10-11T07:58:43.638Z,9.23
2017-10-11T08:01:48.852Z,12.00
2017-10-11T08:04:53.881Z,14.03
2017-10-11T08:07:59.869Z,8.60
2017-10-11T08:11:05.783Z,12.20
2017-10-11T08:14:11.393Z,13.37
2017-10-11T08:17:16.304Z,8.20
2017-10-11T08:20:21.857Z,6.77
2017-10-11T08:23:26.736Z,11.20
2017-10-11T08:26:31.550Z,6.50
2017-10-11T08:29:37.295Z,11.53
2017-10-11T08:32:42.103Z,10.27
2017-10-11T08:35:48.348Z,8.90
2017-10-11T08:38:53.391Z,6.87
2017-10-11T08:41:58.406Z,9.17
2017-10-11T08:45:03.395Z,9.03
2017-10-11T08:48:15.473Z,8.73
2017-10-11T08:51:21.528Z,6.23
2017-10-11T08:54:27.646Z,6.83
2017-10-11T08:57:32.618Z,7.70
2017-10-11T09:00:37.706Z,7.30
2017-10-11T09:03:42.587Z,8.30
2017-10-11T09:06:47.763Z,6.83
2017-10-11T09:09:53.668Z,10.53
2017-10-11T09:13:00.882Z,5.27
2017-10-11T09:16:11.826Z,5.00
2017-10-11T09:19:16.623Z,6.17
2017-10-11T09:22:21.339Z,6.43
2017-10-11T09:25:26.342Z,5.00
2017-10-11T09:28:32.007Z,5.23
2017-10-11T09:31:36.836Z,5.43
2017-10-11T09:34:41.727Z,5.33
2017-10-11T09:37:46.732Z,6.60
2017-10-11T09:40:51.557Z,5.83
2017-10-11T09:43:56.328Z,6.03
2017-10-11T09:47:01.227Z,9.67
2017-10-11T09:50:07.069Z,9.97
2017-10-11T09:53:11.819Z,5.03
2017-10-11T09:56:16.582Z,10.93
2017-10-11T09:59:21.570Z,9.77
2017-10-11T10:02:26.089Z,6.07
2017-10-11T10:05:30.693Z,6.93
2017-10-11T10:08:35.291Z,8.50
2017-10-11T10:11:40.942Z,8.07
2017-10-11T10:14:46.587Z,9.50
2017-10-11T10:17:52.266Z,5.20
2017-10-11T10:20:58.298Z,5.77
2017-10-11T10:24:04.147Z,7.67
2017-10-11T10:27:08.939Z,3.63
2017-10-11T10:30:13.935Z,7.77
2017-10-11T10:33:19.146Z,4.50
2017-10-11T10:36:26.094Z,7.00
2017-10-11T10:39:31.118Z,6.43
2017-10-11T10:42:35.719Z,5.33
2017-10-11T10:45:41.438Z,2.90
2017-10-11T10:48:46.048Z,5.70
2017-10-11T10:51:51.081Z,4.37
2017-10-11T10:54:55.901Z,3.30
2017-10-11T10:58:00.987Z,2.90
2017-10-11T11:01:05.863Z,3.23
2017-10-11T11:04:12.901Z,5.40
2017-10-11T11:07:22.091Z,3.80
2017-10-11T11:10:26.999Z,3.30
2017-10-11T11:13:32.075Z,4.90
2017-10-11T11:16:38.167Z,3.77
2017-10-11T11:19:42.818Z,6.97
2017-10-11T11:22:51.594Z,4.10
2017-10-11T11:25:56.515Z,3.93
2017-10-11T11:29:01.931Z,11.80
2017-10-11T11:32:06.749Z,8.50
2017-10-11T11:35:12.168Z,4.30
2017-10-11T11:38:17.242Z,4.90
2017-10-11T11:41:27.086Z,9.27
2017-10-11T11:44:31.838Z,6.13
2017-10-11T11:47:36.904Z,3.10
2017-10-11T11:50:41.808Z,7.67
2017-10-11T11:53:47.386Z,2.30
2017-10-11T11:56:53.075Z,4.43
2017-10-11T11:59:58.736Z,5.47
2017-10-11T12:03:03.686Z,2.70
2017-10-11T12:06:08.554Z,2.63
2017-10-11T12:09:14.483Z,4.97
2017-10-11T12:12:20.522Z,6.50
2017-10-11T12:15:25.367Z,3.90
2017-10-11T12:18:30.507Z,6.13
2017-10-11T12:21:35.433Z,4.27
2017-10-11T12:24:40.031Z,4.03
2017-10-11T12:27:44.850Z,4.00
2017-10-11T12:30:50.408Z,3.63
2017-10-11T12:33:55.097Z,4.60
2017-10-11T12:37:00.046Z,4.10
2017-10-11T12:40:05.131Z,4.03
2017-10-11T12:43:11.143Z,3.50
2017-10-11T12:46:15.937Z,3.17
2017-10-11T12:49:21.542Z,4.37
2017-10-11T12:52:26.419Z,5.10
2017-10-11T12:55:31.299Z,5.80
2017-10-11T12:58:36.078Z,6.33
2017-10-11T13:01:41.686Z,7.07
2017-10-11T13:04:47.529Z,2.00
2017-10-11T13:07:52.076Z,4.70
2017-10-11T13:10:56.860Z,3.40
2017-10-11T13:14:01.768Z,3.60
2017-10-11T13:17:06.450Z,6.00
2017-10-11T13:20:11.467Z,4.93
2017-10-11T13:23:17.499Z,3.10
2017-10-11T13:26:22.378Z,1.93
2017-10-11T13:29:28.259Z,1.70
2017-10-11T13:32:32.983Z,3.37
2017-10-11T13:35:38.719Z,2.30
2017-10-11T13:38:44.354Z,3.60
2017-10-11T13:41:49.079Z,4.00
2017-10-11T13:44:53.993Z,2.87
2017-10-11T13:48:00.746Z,2.30
2017-10-11T13:51:09.967Z,2.20
2017-10-11T13:54:20.894Z,2.60
2017-10-11T13:57:26.640Z,2.50
2017-10-11T14:00:35.859Z,3.60
2017-10-11T14:03:40.794Z,3.57
2017-10-11T14:06:45.576Z,2.13
2017-10-11T14:09:50.310Z,1.70
2017-10-11T14:12:55.214Z,2.00
2017-10-11T14:15:59.954Z,1.60
2017-10-11T14:19:05.648Z,1.87
2017-10-11T14:22:10.584Z,3.27
2017-10-11T14:25:15.232Z,4.40
2017-10-11T14:28:19.955Z,3.87
2017-10-11T14:31:24.810Z,2.33
2017-10-11T14:34:29.619Z,3.97
2017-10-11T14:37:34.534Z,4.23
2017-10-11T14:40:39.107Z,1.50
2017-10-11T14:43:44.820Z,3.30
2017-10-11T14:46:50.366Z,5.60
2017-10-11T14:49:55.341Z,2.33
2017-10-11T14:53:00.363Z,2.00
2017-10-11T14:56:05.951Z,1.70
2017-10-11T14:59:10.794Z,5.23
2017-10-11T15:02:16.034Z,1.20
2017-10-11T15:05:21.867Z,4.30
2017-10-11T15:08:27.957Z,1.20
2017-10-11T15:11:32.699Z,5.33
2017-10-11T15:14:37.562Z,3.10
2017-10-11T15:17:42.359Z,3.27
2017-10-11T15:20:47.359Z,2.60
2017-10-11T15:23:52.255Z,2.20
2017-10-11T15:26:57.094Z,2.73
2017-10-11T15:30:03.156Z,1.40
2017-10-11T15:33:07.755Z,4.00
2017-10-11T15:36:12.578Z,3.30
2017-10-11T15:39:17.338Z,7.63
2017-10-11T15:42:22.267Z,2.87
2017-10-11T15:45:27.219Z,2.63
2017-10-11T15:48:31.946Z,1.70
2017-10-11T15:51:36.867Z,4.90
2017-10-11T15:54:42.575Z,3.23
2017-10-11T15:57:47.421Z,1.57
2017-10-11T16:00:51.975Z,2.20
2017-10-11T16:03:56.635Z,1.53
2017-10-11T16:07:02.267Z,4.90
2017-10-11T16:10:07.878Z,2.17
2017-10-11T16:13:13.517Z,6.13
2017-10-11T16:16:18.202Z,5.57
2017-10-11T16:19:23.095Z,2.77
2017-10-11T16:22:29.149Z,2.57
2017-10-11T16:25:35.334Z,3.20
2017-10-11T16:28:40.839Z,4.37
2017-10-11T16:31:45.822Z,3.90
2017-10-11T16:34:51.600Z,4.00
2017-10-11T16:37:56.206Z,2.43
2017-10-11T16:41:01.176Z,5.37
2017-10-11T16:44:09.861Z,3.57
2017-10-11T16:47:15.546Z,2.33
2017-10-11T16:50:27.287Z,2.33
2017-10-11T16:53:32.110Z,3.50
2017-10-11T16:56:37.143Z,6.73
2017-10-11T16:59:42.831Z,5.47
2017-10-11T17:02:48.663Z,6.13
2017-10-11T17:05:53.558Z,5.83
2017-10-11T17:08:58.412Z,5.70
2017-10-11T17:12:14.226Z,8.37
2017-10-11T17:15:21.218Z,4.20
2017-10-11T17:18:25.992Z,3.70
2017-10-11T17:21:39.996Z,9.50
2017-10-11T17:24:44.846Z,6.33
2017-10-11T17:27:50.836Z,5.80
2017-10-11T17:30:55.507Z,5.07
2017-10-11T17:34:00.547Z,7.27
2017-10-11T17:37:06.564Z,4.23
2017-10-11T17:40:11.435Z,11.20
2017-10-11T17:43:16.106Z,14.07
2017-10-11T17:46:21.994Z,9.83
2017-10-11T17:49:26.826Z,4.50
2017-10-11T17:52:31.946Z,6.67
2017-10-11T17:55:36.432Z,5.73
2017-10-11T17:58:41.958Z,12.47
2017-10-11T18:01:50.894Z,6.00
2017-10-11T18:04:55.769Z,7.70
2017-10-11T18:08:05.510Z,10.60
2017-10-11T18:11:12.319Z,6.40
2017-10-11T18:14:17.080Z,13.83
2017-10-11T18:17:22.963Z,7.80
2017-10-11T18:20:27.839Z,7.27
2017-10-11T18:23:32.610Z,13.73
2017-10-11T18:26:38.231Z,7.30
2017-10-11T18:29:43.375Z,15.40
2017-10-11T18:32:48.006Z,10.70
2017-10-11T18:35:53.795Z,17.53
2017-10-11T18:38:58.406Z,13.30
2017-10-11T18:42:03.171Z,13.00
2017-10-11T18:45:07.990Z,12.37
2017-10-11T18:48:12.983Z,13.67
2017-10-11T18:51:21.686Z,25.23
2017-10-11T18:54:29.752Z,6.80
2017-10-11T18:57:35.919Z,6.07
2017-10-11T19:00:42.998Z,9.00
2017-10-11T19:03:47.655Z,7.60
2017-10-11T19:06:54.631Z,11.80
2017-10-11T19:10:02.324Z,11.30
2017-10-11T19:13:07.429Z,4.70
2017-10-11T19:16:12.540Z,19.90
2017-10-11T19:19:17.586Z,14.20
2017-10-11T19:22:22.789Z,11.20
2017-10-11T19:25:27.747Z,12.07
2017-10-11T19:28:35.692Z,9.97
2017-10-11T19:31:45.545Z,10.80
2017-10-11T19:34:54.596Z,15.80
2017-10-11T19:38:00.751Z,14.13
2017-10-11T19:41:05.499Z,8.60
2017-10-11T19:44:22.139Z,12.73
2017-10-11T19:47:27.016Z,14.90
2017-10-11T19:50:32.944Z,15.63
2017-10-11T19:53:40.934Z,10.80
2017-10-11T19:56:45.730Z,7.90
2017-10-11T19:59:50.355Z,16.13
2017-10-11T20:02:55.232Z,12.13
2017-10-11T20:06:00.876Z,9.30
2017-10-11T20:09:05.808Z,12.50
2017-10-11T20:12:10.471Z,12.57
2017-10-11T20:15:15.963Z,8.13
2017-10-11T20:18:32.739Z,10.33
2017-10-11T20:21:41.563Z,7.30
2017-10-11T20:24:47.298Z,11.90
2017-10-11T20:27:55.192Z,6.70
2017-10-11T20:31:00.030Z,7.93
2017-10-11T20:34:05.730Z,5.67
2017-10-11T20:37:10.640Z,5.13
2017-10-11T20:40:15.391Z,6.33
2017-10-11T20:43:20.376Z,9.20
2017-10-11T20:46:26.132Z,8.00
2017-10-11T20:49:31.219Z,9.57
2017-10-11T20:52:37.155Z,6.00
2017-10-11T20:55:41.963Z,7.40
2017-10-11T20:58:46.886Z,6.03
2017-10-11T21:01:51.648Z,14.27
2017-10-11T21:05:02.374Z,8.77
2017-10-11T21:08:07.286Z,7.33
2017-10-11T21:11:12.260Z,6.13
2017-10-11T21:14:17.163Z,5.73
2017-10-11T21:17:22.851Z,8.27
2017-10-11T21:20:27.427Z,7.43
2017-10-11T21:23:32.317Z,12.63
2017-10-11T21:26:37.064Z,12.73
2017-10-11T21:29:41.974Z,12.07
2017-10-11T21:32:49.801Z,6.23
2017-10-11T21:35:57.851Z,9.10
2017-10-11T21:39:02.651Z,6.27
2017-10-11T21:42:08.459Z,6.40
2017-10-11T21:45:15.470Z,11.90
2017-10-11T21:48:20.383Z,9.03
2017-10-11T21:51:25.126Z,13.40
2017-10-11T21:54:29.990Z,8.00
2017-10-11T21:57:35.170Z,8.40
2017-10-11T22:00:40.875Z,14.10
2017-10-11T22:03:47.206Z,8.83
2017-10-11T22:06:53.502Z,6.40
2017-10-11T22:09:58.726Z,11.20
2017-10-11T22:13:10.206Z,6.50
2017-10-11T22:16:18.340Z,15.90
2017-10-11T22:19:24.042Z,11.47
2017-10-11T22:22:28.897Z,9.87
2017-10-11T22:25:33.813Z,12.73
2017-10-11T22:28:38.643Z,14.37
2017-10-11T22:31:44.863Z,10.40
2017-10-11T22:34:50.789Z,13.60
2017-10-11T22:37:55.578Z,12.63
2017-10-11T22:41:00.497Z,12.10
2017-10-11T22:44:05.271Z,15.30
2017-10-11T22:47:11.174Z,10.40
2017-10-11T22:50:16.034Z,11.60
2017-10-11T22:53:20.922Z,9.37
2017-10-11T22:56:25.613Z,10.43
2017-10-11T22:59:31.523Z,7.43
2017-10-11T23:02:37.326Z,9.33
2017-10-11T23:05:42.375Z,14.97
2017-10-11T23:08:48.458Z,10.60
2017-10-11T23:11:53.334Z,10.20
2017-10-11T23:14:59.158Z,11.73
2017-10-11T23:18:04.991Z,9.50
2017-10-11T23:21:12.679Z,8.83
2017-10-11T23:24:19.116Z,8.30
2017-10-11T23:27:31.006Z,8.90
2017-10-11T23:30:36.952Z,8.53
2017-10-11T23:33:42.770Z,8.90
2017-10-11T23:36:47.562Z,7.27
2017-10-11T23:39:52.295Z,7.77
2017-10-11T23:42:57.273Z,9.13
2017-10-11T23:46:03.183Z,8.10
2017-10-11T23:49:10.318Z,9.03
2017-10-11T23:52:15.290Z,6.60
2017-10-11T23:55:26.118Z,9.43
2017-10-11T23:58:38.908Z,7.10
